Time;durP1;ratioP1;P1;durP2;ratioP2;P2;SDS_P1;SDS_P2;PMS_P1;PMS_P2;Temp;Humidity;BMP_temperature;BMP_pressure;BME280_temperature;BME280_humidity;BME280_pressure;Samples;Min_cycle;Max_cycle;Signal;HPM_P1;HPM_P2
2022/10/04 00:02:13;;;;;;;;;27.33;22.67;;;;;;;;5015057;28;45300;-66
2022/10/04 00:04:44;;;;;;;;;23.00;21.67;;;;;;;;5013688;28;46578;-66
2022/10/04 00:07:12;;;;;;;;;20.67;19.00;;;;;;;;5030751;28;45424;-66
2022/10/04 00:09:45;;;;;;;;;25.67;22.33;;;;;;;;5017275;28;45242;-66
2022/10/04 00:12:34;;;;;;;;;24.33;19.33;;;;;;;;5017103;28;45329;-66
2022/10/04 00:15:02;;;;;;;;;27.33;20.33;;;;;;;;5016871;28;46482;-66
2022/10/04 00:17:30;;;;;;;;;24.67;24.67;;;;;;;;5016644;28;46022;-66
2022/10/04 00:19:56;;;;;;;;;28.33;22.67;;;;;;;;5015942;28;45347;-66
2022/10/04 00:22:25;;;;;;;;;25.33;18.67;;;;;;;;5016947;28;45497;-66
2022/10/04 00:25:09;;;;;;;;;21.00;18.33;;;;;;;;5016732;28;45573;-66
2022/10/04 00:27:35;;;;;;;;;28.67;19.33;;;;;;;;5016825;28;45261;-66
2022/10/04 00:30:00;;;;;;;;;21.67;20.00;;;;;;;;5017052;28;45311;-66
2022/10/04 00:32:41;;;;;;;;;21.00;19.00;;;;;;;;5016507;28;45605;-66
2022/10/04 00:35:24;;;;;;;;;27.33;19.33;;;;;;;;5016708;28;46334;-66
2022/10/04 00:37:55;;;;;;;;;20.00;18.00;;;;;;;;5015539;28;45448;-66
2022/10/04 00:40:21;;;;;;;;;22.67;18.67;;;;;;;;5016210;28;45445;-66
2022/10/04 00:42:51;;;;;;;;;19.67;19.00;;;;;;;;5017062;28;45645;-66
2022/10/04 00:45:37;;;;;;;;;20.67;19.33;;;;;;;;5016528;28;46484;-66
2022/10/04 00:48:10;;;;;;;;;28.67;21.67;;;;;;;;5017451;28;45323;-66
2022/10/04 00:50:40;;;;;;;;;23.00;21.33;;;;;;;;5019708;28;45400;-66
2022/10/04 00:53:24;;;;;;;;;24.67;22.00;;;;;;;;5020435;28;45251;-66
2022/10/04 00:55:55;;;;;;;;;19.33;17.33;;;;;;;;5018539;28;46812;-66
2022/10/04 00:58:23;;;;;;;;;21.67;17.67;;;;;;;;5020021;28;45374;-66
2022/10/04 01:00:48;;;;;;;;;18.67;17.67;;;;;;;;5020185;28;45258;-66
2022/10/04 01:03:17;;;;;;;;;22.67;21.00;;;;;;;;5019902;28;45409;-66
2022/10/04 01:05:49;;;;;;;;;24.33;19.00;;;;;;;;5019418;28;45511;-66
2022/10/04 01:08:34;;;;;;;;;25.33;21.67;;;;;;;;5019867;28;45219;-66
2022/10/04 01:11:08;;;;;;;;;24.00;21.00;;;;;;;;5018747;28;45346;-66
2022/10/04 01:14:00;;;;;;;;;24.67;19.67;;;;;;;;5020136;28;45301;-66
2022/10/04 01:16:27;;;;;;;;;25.67;18.00;;;;;;;;4995632;28;46556;-67
2022/10/04 01:18:52;;;;;;;;;23.67;18.33;;;;;;;;4997580;28;45286;-66
2022/10/04 01:21:17;;;;;;;;;22.00;19.33;;;;;;;;4997477;28;45270;-66
2022/10/04 01:23:46;;;;;;;;;21.67;19.33;;;;;;;;4997738;28;45369;-66
2022/10/04 01:26:23;;;;;;;;;21.67;20.00;;;;;;;;4996859;28;47591;-66
2022/10/04 01:28:48;;;;;;;;;22.33;18.67;;;;;;;;4997438;28;45380;-66
2022/10/04 01:31:14;;;;;;;;;19.33;18.33;;;;;;;;4997324;28;45402;-66
2022/10/04 01:33:39;;;;;;;;;29.33;21.33;;;;;;;;4996396;28;45409;-66
2022/10/04 01:36:05;;;;;;;;;25.00;22.33;;;;;;;;4997172;28;46504;-66
2022/10/04 01:38:30;;;;;;;;;24.33;19.33;;;;;;;;4997079;28;45413;-66
2022/10/04 01:40:59;;;;;;;;;23.33;19.00;;;;;;;;4997289;28;45344;-66
2022/10/04 01:43:29;;;;;;;;;20.67;18.00;;;;;;;;4997168;28;45397;-66
2022/10/04 01:45:57;;;;;;;;;26.00;21.33;;;;;;;;4996999;28;45467;-66
2022/10/04 01:48:25;;;;;;;;;24.00;18.67;;;;;;;;4996610;28;45343;-66
2022/10/04 01:50:59;;;;;;;;;18.33;16.67;;;;;;;;4996150;28;45297;-66
2022/10/04 01:53:28;;;;;;;;;20.67;19.00;;;;;;;;5009222;28;45472;-66
2022/10/04 01:55:57;;;;;;;;;18.33;16.67;;;;;;;;5019020;28;47360;-66
2022/10/04 01:58:27;;;;;;;;;21.00;20.00;;;;;;;;5018626;28;45345;-66
2022/10/04 02:00:59;;;;;;;;;23.00;16.67;;;;;;;;5018339;28;45435;-66
2022/10/04 02:03:31;;;;;;;;;25.33;19.33;;;;;;;;5018561;28;45420;-65
2022/10/04 02:05:59;;;;;;;;;22.00;19.33;;;;;;;;5017181;28;47433;-65
2022/10/04 02:08:26;;;;;;;;;18.33;17.33;;;;;;;;5018618;28;45392;-65
2022/10/04 02:10:53;;;;;;;;;25.00;20.67;;;;;;;;5019230;28;45326;-64
2022/10/04 02:13:20;;;;;;;;;24.00;20.33;;;;;;;;5018413;28;45361;-64
2022/10/04 02:15:46;;;;;;;;;20.33;20.33;;;;;;;;5017911;28;46714;-65
2022/10/04 02:18:13;;;;;;;;;26.00;20.00;;;;;;;;5018684;28;45255;-64
2022/10/04 02:20:39;;;;;;;;;20.67;18.33;;;;;;;;5018211;28;45446;-65
2022/10/04 02:23:06;;;;;;;;;26.67;22.00;;;;;;;;5017189;28;45199;-64
2022/10/04 02:25:34;;;;;;;;;20.00;20.00;;;;;;;;5018412;28;46585;-64
2022/10/04 02:27:59;;;;;;;;;19.33;16.00;;;;;;;;5018560;28;45399;-64
2022/10/04 02:30:25;;;;;;;;;26.00;20.33;;;;;;;;5018728;28;45342;-64
2022/10/04 02:32:59;;;;;;;;;18.67;17.33;;;;;;;;5018674;28;45242;-64
2022/10/04 02:35:44;;;;;;;;;17.00;17.00;;;;;;;;5017890;28;48220;-64
2022/10/04 02:38:10;;;;;;;;;24.00;19.33;;;;;;;;5017257;28;45242;-64
2022/10/04 02:40:56;;;;;;;;;20.67;18.67;;;;;;;;5018687;28;45313;-64
2022/10/04 02:43:38;;;;;;;;;25.00;18.00;;;;;;;;5017731;28;45750;-64
2022/10/04 02:46:24;;;;;;;;;22.00;19.67;;;;;;;;5018268;28;45589;-64
2022/10/04 02:49:00;;;;;;;;;21.67;17.67;;;;;;;;5018186;28;45455;-64
2022/10/04 02:51:30;;;;;;;;;28.33;21.67;;;;;;;;5018362;28;45337;-64
2022/10/04 02:53:56;;;;;;;;;22.00;20.00;;;;;;;;5017974;28;45412;-64
2022/10/04 02:56:23;;;;;;;;;21.33;17.33;;;;;;;;5016742;28;47390;-64
2022/10/04 02:58:49;;;;;;;;;20.67;17.67;;;;;;;;5017974;28;45473;-64
2022/10/04 03:01:16;;;;;;;;;27.00;23.00;;;;;;;;5018310;28;45321;-63
2022/10/04 03:03:44;;;;;;;;;22.00;17.67;;;;;;;;5017931;28;45520;-64
2022/10/04 03:06:11;;;;;;;;;21.33;20.00;;;;;;;;5017736;28;45286;-64
2022/10/04 03:08:43;;;;;;;;;20.33;17.67;;;;;;;;5017646;28;45294;-63
2022/10/04 03:11:10;;;;;;;;;25.33;20.33;;;;;;;;5017629;28;45327;-63
2022/10/04 03:13:36;;;;;;;;;21.33;19.00;;;;;;;;5016670;28;45219;-64
2022/10/04 03:16:01;;;;;;;;;21.33;19.33;;;;;;;;5017685;28;46511;-64
2022/10/04 03:18:28;;;;;;;;;29.00;21.67;;;;;;;;5017219;28;45291;-64
2022/10/04 03:20:53;;;;;;;;;24.00;20.33;;;;;;;;5018168;28;45753;-64
2022/10/04 03:23:19;;;;;;;;;21.67;18.00;;;;;;;;5017499;28;45458;-64
2022/10/04 03:25:49;;;;;;;;;24.33;20.67;;;;;;;;5016973;28;46245;-64
2022/10/04 03:28:15;;;;;;;;;27.00;22.67;;;;;;;;5017001;28;45201;-64
2022/10/04 03:30:45;;;;;;;;;20.67;18.67;;;;;;;;5017706;28;45226;-67
2022/10/04 03:33:18;;;;;;;;;28.00;20.00;;;;;;;;5017247;28;45447;-67
2022/10/04 03:35:45;;;;;;;;;22.00;19.00;;;;;;;;5016057;28;46635;-67
2022/10/04 03:38:11;;;;;;;;;23.67;21.33;;;;;;;;5017454;28;45386;-68
2022/10/04 03:40:38;;;;;;;;;18.33;18.33;;;;;;;;5017567;28;45270;-67
2022/10/04 03:43:04;;;;;;;;;24.33;21.33;;;;;;;;5017155;28;45342;-68
2022/10/04 03:45:30;;;;;;;;;29.00;24.33;;;;;;;;5015941;28;45400;-68
2022/10/04 03:48:01;;;;;;;;;21.00;19.00;;;;;;;;5017460;28;45314;-68
2022/10/04 03:50:28;;;;;;;;;23.67;18.67;;;;;;;;5017615;28;45317;-67
2022/10/04 03:52:55;;;;;;;;;24.67;23.33;;;;;;;;5017289;28;45430;-68
2022/10/04 03:55:23;;;;;;;;;22.67;18.33;;;;;;;;5013353;28;46570;-68
2022/10/04 03:57:48;;;;;;;;;22.00;21.33;;;;;;;;5017063;28;45383;-67
2022/10/04 04:00:17;;;;;;;;;21.67;20.67;;;;;;;;5016840;28;45428;-68
2022/10/04 04:02:45;;;;;;;;;21.33;21.33;;;;;;;;5016448;28;46798;-68
2022/10/04 04:05:28;;;;;;;;;23.67;21.00;;;;;;;;5016510;28;45248;-67
2022/10/04 04:08:11;;;;;;;;;23.67;20.67;;;;;;;;5017094;28;45321;-67
2022/10/04 04:10:38;;;;;;;;;26.00;21.00;;;;;;;;5016866;28;45425;-67
2022/10/04 04:13:21;;;;;;;;;25.67;20.67;;;;;;;;5016901;28;45443;-67
2022/10/04 04:15:47;;;;;;;;;22.00;19.00;;;;;;;;5016973;28;46216;-67
2022/10/04 04:18:16;;;;;;;;;25.67;22.00;;;;;;;;5015814;28;45421;-67
2022/10/04 04:20:42;;;;;;;;;22.00;21.00;;;;;;;;5016964;28;45499;-67
2022/10/04 04:23:10;;;;;;;;;27.00;20.67;;;;;;;;5018778;28;45341;-67
2022/10/04 04:25:38;;;;;;;;;26.67;22.33;;;;;;;;5019894;28;45415;-67
2022/10/04 04:28:12;;;;;;;;;23.00;19.33;;;;;;;;5019080;28;45479;-67
2022/10/04 04:30:38;;;;;;;;;24.67;21.33;;;;;;;;5020490;28;45406;-66
2022/10/04 04:33:09;;;;;;;;;23.33;21.33;;;;;;;;5019076;28;45260;-67
2022/10/04 04:35:35;;;;;;;;;24.67;21.67;;;;;;;;5019994;28;46318;-67
2022/10/04 04:38:13;;;;;;;;;29.67;26.33;;;;;;;;5020259;28;45422;-67
2022/10/04 04:40:39;;;;;;;;;22.00;21.00;;;;;;;;5020099;28;45221;-67
2022/10/04 04:43:04;;;;;;;;;28.67;21.67;;;;;;;;5020261;28;45346;-66
2022/10/04 04:45:30;;;;;;;;;18.33;17.33;;;;;;;;5019803;28;46697;-66
2022/10/04 04:47:57;;;;;;;;;23.33;20.33;;;;;;;;5019951;28;45583;-66
2022/10/04 04:50:36;;;;;;;;;23.00;21.00;;;;;;;;5018969;28;45600;-66
2022/10/04 04:53:04;;;;;;;;;31.33;22.67;;;;;;;;5019946;28;45317;-66
2022/10/04 04:55:39;;;;;;;;;27.67;22.00;;;;;;;;5019809;28;46522;-66
2022/10/04 04:58:05;;;;;;;;;28.67;23.00;;;;;;;;5019849;28;45369;-66
2022/10/04 05:00:33;;;;;;;;;25.33;20.33;;;;;;;;5019795;28;45427;-66
2022/10/04 05:03:02;;;;;;;;;26.33;21.33;;;;;;;;5019347;28;45468;-65
2022/10/04 05:05:31;;;;;;;;;25.67;21.33;;;;;;;;5019514;28;45416;-66
2022/10/04 05:08:13;;;;;;;;;23.00;21.00;;;;;;;;5018685;28;45257;-65
2022/10/04 05:10:45;;;;;;;;;26.00;20.00;;;;;;;;5019818;28;45302;-66
2022/10/04 05:13:11;;;;;;;;;21.67;20.00;;;;;;;;5019630;28;45572;-66
2022/10/04 05:15:37;;;;;;;;;19.33;18.67;;;;;;;;5019585;28;46598;-65
2022/10/04 05:18:14;;;;;;;;;27.67;25.67;;;;;;;;5019235;28;45254;-66
2022/10/04 05:20:42;;;;;;;;;29.00;21.00;;;;;;;;5019398;28;45495;-65
2022/10/04 05:23:10;;;;;;;;;21.67;21.67;;;;;;;;5019491;28;45312;-65
2022/10/04 05:25:35;;;;;;;;;23.67;17.67;;;;;;;;5017827;28;46864;-65
2022/10/04 05:28:00;;;;;;;;;26.67;24.00;;;;;;;;5018730;28;45568;-65
2022/10/04 05:30:28;;;;;;;;;26.00;22.00;;;;;;;;5019577;28;45772;-65
2022/10/04 05:33:02;;;;;;;;;21.00;21.00;;;;;;;;5019397;28;45354;-65
2022/10/04 05:35:27;;;;;;;;;27.67;21.33;;;;;;;;5018007;28;45469;-65
2022/10/04 05:37:59;;;;;;;;;51.00;39.33;;;;;;;;5017674;28;45657;-65
2022/10/04 05:40:49;;;;;;;;;31.33;29.33;;;;;;;;5019482;28;45512;-65
2022/10/04 05:43:24;;;;;;;;;34.67;29.67;;;;;;;;5018471;28;45429;-65
2022/10/04 05:46:09;;;;;;;;;28.33;22.00;;;;;;;;5018382;28;45560;-65
2022/10/04 05:48:35;;;;;;;;;27.33;21.33;;;;;;;;5018448;28;45253;-65
2022/10/04 05:51:00;;;;;;;;;30.67;27.00;;;;;;;;5019079;28;45381;-65
2022/10/04 05:53:29;;;;;;;;;24.67;23.33;;;;;;;;5019372;28;45302;-66
2022/10/04 05:55:58;;;;;;;;;27.33;25.67;;;;;;;;5018475;28;46979;-65
2022/10/04 05:58:41;;;;;;;;;27.67;24.00;;;;;;;;5017690;28;45447;-65
2022/10/04 06:01:09;;;;;;;;;38.33;32.33;;;;;;;;5018791;28;45413;-66
2022/10/04 06:03:46;;;;;;;;;27.00;25.67;;;;;;;;5018756;28;45393;-66
2022/10/04 06:06:15;;;;;;;;;25.67;23.00;;;;;;;;5018215;28;46509;-66
2022/10/04 06:08:40;;;;;;;;;31.33;26.67;;;;;;;;5018923;28;45482;-67
2022/10/04 06:11:15;;;;;;;;;29.33;29.00;;;;;;;;5018986;28;45332;-66
2022/10/04 06:13:47;;;;;;;;;32.00;25.67;;;;;;;;5019178;28;45368;-66
2022/10/04 06:16:30;;;;;;;;;32.00;27.67;;;;;;;;5017761;28;46143;-67
2022/10/04 06:18:58;;;;;;;;;39.67;34.00;;;;;;;;5018405;28;45443;-66
2022/10/04 06:21:26;;;;;;;;;28.67;22.67;;;;;;;;5018622;28;45809;-66
2022/10/04 06:23:54;;;;;;;;;30.67;29.00;;;;;;;;5018379;28;45488;-67
2022/10/04 06:26:24;;;;;;;;;38.33;33.00;;;;;;;;5017676;28;46553;-67
2022/10/04 06:29:16;;;;;;;;;34.33;28.67;;;;;;;;5017810;28;45428;-66
2022/10/04 06:31:58;;;;;;;;;34.33;27.33;;;;;;;;5014970;28;45682;-66
2022/10/04 06:34:46;;;;;;;;;54.33;43.33;;;;;;;;5018469;28;45451;-66
2022/10/04 06:37:41;;;;;;;;;33.67;27.67;;;;;;;;5016663;28;46128;-66
2022/10/04 06:40:26;;;;;;;;;33.33;30.33;;;;;;;;5015920;28;45288;-65
2022/10/04 06:43:03;;;;;;;;;32.00;25.00;;;;;;;;5015486;28;45260;-65
2022/10/04 06:45:36;;;;;;;;;34.67;31.33;;;;;;;;5015524;28;45486;-65
2022/10/04 06:48:19;;;;;;;;;36.33;31.67;;;;;;;;5016090;28;46182;-65
2022/10/04 06:50:48;;;;;;;;;34.33;29.00;;;;;;;;5015796;28;45405;-65
2022/10/04 06:53:32;;;;;;;;;33.67;29.00;;;;;;;;5016106;28;45416;-65
2022/10/04 06:56:05;;;;;;;;;36.00;32.00;;;;;;;;5015291;28;45489;-65
2022/10/04 06:58:32;;;;;;;;;40.67;32.67;;;;;;;;5015594;28;46228;-65
2022/10/04 07:00:57;;;;;;;;;32.33;28.33;;;;;;;;5015691;28;45335;-65
2022/10/04 07:03:29;;;;;;;;;33.33;29.00;;;;;;;;5015753;28;45455;-66
2022/10/04 07:05:59;;;;;;;;;36.00;32.33;;;;;;;;5015011;28;45458;-65
2022/10/04 07:08:31;;;;;;;;;30.00;28.67;;;;;;;;5015618;28;46263;-65
2022/10/04 07:11:10;;;;;;;;;29.33;23.67;;;;;;;;5015616;28;45830;-65
2022/10/04 07:13:39;;;;;;;;;29.00;25.00;;;;;;;;5015781;28;45426;-65
2022/10/04 07:16:23;;;;;;;;;37.33;29.33;;;;;;;;5016433;28;45340;-65
2022/10/04 07:19:00;;;;;;;;;36.33;28.67;;;;;;;;5017767;28;45349;-65
2022/10/04 07:21:35;;;;;;;;;36.00;28.33;;;;;;;;5017584;28;45669;-65
2022/10/04 07:24:02;;;;;;;;;41.00;29.33;;;;;;;;5017647;28;45416;-66
2022/10/04 07:26:32;;;;;;;;;42.67;33.67;;;;;;;;5017633;28;45322;-65
2022/10/04 07:31:45;;;;;;;;;33.00;27.00;;;;;;;;5017438;28;45452;-65
2022/10/04 07:34:14;;;;;;;;;38.00;31.67;;;;;;;;5017655;28;45215;-65
2022/10/04 07:36:40;;;;;;;;;41.33;32.67;;;;;;;;5017484;28;45406;-66
2022/10/04 07:39:10;;;;;;;;;29.67;25.33;;;;;;;;5017375;28;46156;-66
2022/10/04 07:41:54;;;;;;;;;35.67;31.00;;;;;;;;5017426;28;45266;-66
2022/10/04 07:44:32;;;;;;;;;25.00;21.33;;;;;;;;5017287;28;45289;-66
2022/10/04 07:47:07;;;;;;;;;20.33;18.67;;;;;;;;5017570;28;45400;-66
2022/10/04 07:49:36;;;;;;;;;23.00;22.33;;;;;;;;5017288;28;46302;-66
2022/10/04 07:52:03;;;;;;;;;35.33;30.67;;;;;;;;5017057;28;45812;-66
2022/10/04 07:54:31;;;;;;;;;24.67;20.33;;;;;;;;5017396;28;45290;-66
2022/10/04 07:57:04;;;;;;;;;21.67;19.33;;;;;;;;5016407;28;45248;-66
2022/10/04 07:59:55;;;;;;;;;30.00;25.00;;;;;;;;5016947;28;46454;-66
2022/10/04 08:02:29;;;;;;;;;20.33;18.33;;;;;;;;5017036;28;45412;-66
2022/10/04 08:05:12;;;;;;;;;24.33;17.33;;;;;;;;5017043;28;45313;-66
2022/10/04 08:07:38;;;;;;;;;25.33;22.00;;;;;;;;5017000;28;45443;-67
2022/10/04 08:10:06;;;;;;;;;22.33;19.67;;;;;;;;5016996;28;45602;-67
2022/10/04 08:12:43;;;;;;;;;20.67;18.67;;;;;;;;5016908;28;45322;-66
2022/10/04 08:15:20;;;;;;;;;53.33;40.67;;;;;;;;5017186;28;45452;-66
2022/10/04 08:17:54;;;;;;;;;27.67;24.00;;;;;;;;5017422;28;45385;-66
2022/10/04 08:20:22;;;;;;;;;24.00;20.33;;;;;;;;5016761;28;45420;-67
2022/10/04 08:23:10;;;;;;;;;18.67;15.33;;;;;;;;5016848;28;45184;-67
2022/10/04 08:25:44;;;;;;;;;22.67;18.00;;;;;;;;5016529;28;45548;-66
2022/10/04 08:31:08;;;;;;;;;15.67;14.67;;;;;;;;5016639;28;45742;-67
2022/10/04 08:33:52;;;;;;;;;21.00;16.67;;;;;;;;5016510;28;45380;-67
2022/10/04 08:36:35;;;;;;;;;20.67;20.33;;;;;;;;5016996;28;45358;-66
2022/10/04 08:39:02;;;;;;;;;21.33;17.67;;;;;;;;5017069;28;45310;-66
2022/10/04 08:41:30;;;;;;;;;18.67;18.00;;;;;;;;5016689;28;46532;-66
2022/10/04 08:44:23;;;;;;;;;21.67;17.67;;;;;;;;5016627;28;45508;-66
2022/10/04 08:47:09;;;;;;;;;22.00;19.67;;;;;;;;5016805;28;45423;-66
2022/10/04 08:49:57;;;;;;;;;27.33;22.33;;;;;;;;5016825;28;45464;-67
2022/10/04 08:52:41;;;;;;;;;20.33;20.00;;;;;;;;5016573;28;45374;-67
2022/10/04 08:55:10;;;;;;;;;24.33;21.00;;;;;;;;5016529;28;45415;-67
2022/10/04 08:57:51;;;;;;;;;23.00;21.00;;;;;;;;5016526;28;45346;-67
2022/10/04 09:00:34;;;;;;;;;20.00;19.33;;;;;;;;5016736;28;45436;-67
2022/10/04 09:03:14;;;;;;;;;26.00;21.00;;;;;;;;5016337;28;47017;-66
2022/10/04 09:05:58;;;;;;;;;20.67;18.67;;;;;;;;5016361;28;45851;-66
2022/10/04 09:08:49;;;;;;;;;20.67;20.00;;;;;;;;5016944;28;45365;-67
2022/10/04 09:11:30;;;;;;;;;24.33;22.33;;;;;;;;5018988;28;45480;-66
2022/10/04 09:13:55;;;;;;;;;21.00;19.67;;;;;;;;5019529;28;46404;-67
2022/10/04 09:16:35;;;;;;;;;24.00;21.33;;;;;;;;5019792;28;45365;-67
2022/10/04 09:19:19;;;;;;;;;22.33;19.67;;;;;;;;5019821;28;45244;-67
2022/10/04 09:22:03;;;;;;;;;23.00;21.00;;;;;;;;5019865;28;45447;-67
2022/10/04 09:24:43;;;;;;;;;24.00;20.50;;;;;;;;5019308;28;46483;-67
2022/10/04 09:27:24;;;;;;;;;26.33;21.00;;;;;;;;5019154;28;45278;-66
2022/10/04 09:30:08;;;;;;;;;23.67;21.67;;;;;;;;5019571;28;45283;-66
2022/10/04 09:32:42;;;;;;;;;27.00;23.00;;;;;;;;5019716;28;45274;-66
2022/10/04 09:35:28;;;;;;;;;24.00;20.00;;;;;;;;5019460;28;46512;-66
2022/10/04 09:37:56;;;;;;;;;22.33;17.67;;;;;;;;5019391;28;45353;-66
2022/10/04 09:40:27;;;;;;;;;22.33;21.00;;;;;;;;5019409;28;45380;-66
2022/10/04 09:43:11;;;;;;;;;24.00;19.67;;;;;;;;5019331;28;45311;-67
2022/10/04 09:45:51;;;;;;;;;29.67;27.00;;;;;;;;5019344;28;45404;-67
2022/10/04 09:48:23;;;;;;;;;19.33;18.00;;;;;;;;5019267;28;45235;-67
2022/10/04 09:50:55;;;;;;;;;20.00;19.67;;;;;;;;5019247;28;45211;-66
2022/10/04 09:53:26;;;;;;;;;28.00;20.67;;;;;;;;5019216;28;45366;-67
2022/10/04 09:55:55;;;;;;;;;22.00;17.33;;;;;;;;5019076;28;46511;-67
2022/10/04 09:58:36;;;;;;;;;21.00;18.00;;;;;;;;5018821;28;45447;-67
2022/10/04 10:01:01;;;;;;;;;19.33;15.33;;;;;;;;5019099;28;45349;-67
2022/10/04 10:03:27;;;;;;;;;12.00;12.00;;;;;;;;5019218;28;45395;-67
2022/10/04 10:06:10;;;;;;;;;14.67;14.00;;;;;;;;5018858;28;45253;-66
2022/10/04 10:08:35;;;;;;;;;17.33;13.00;;;;;;;;5018716;28;45400;-66
2022/10/04 10:14:06;;;;;;;;;14.00;12.67;;;;;;;;5019083;28;45184;-66
2022/10/04 10:16:43;;;;;;;;;17.33;17.33;;;;;;;;5018682;28;45230;-66
2022/10/04 10:19:14;;;;;;;;;19.00;15.33;;;;;;;;5018651;28;45452;-67
2022/10/04 10:21:39;;;;;;;;;17.00;13.00;;;;;;;;5017763;28;45389;-66
2022/10/04 10:24:21;;;;;;;;;17.67;11.33;;;;;;;;5018984;28;45366;-66
2022/10/04 10:26:46;;;;;;;;;17.33;17.00;;;;;;;;5018297;28;45571;-67
2022/10/04 10:29:21;;;;;;;;;16.33;14.00;;;;;;;;5018678;28;45365;-67
2022/10/04 10:31:50;;;;;;;;;11.67;11.67;;;;;;;;5018662;28;45462;-67
2022/10/04 10:34:18;;;;;;;;;17.00;15.33;;;;;;;;5018700;28;45504;-67
2022/10/04 10:36:43;;;;;;;;;16.00;14.67;;;;;;;;5018452;28;45502;-67
2022/10/04 10:39:08;;;;;;;;;12.00;12.00;;;;;;;;5018390;28;45379;-66
2022/10/04 10:41:34;;;;;;;;;19.00;11.00;;;;;;;;5018667;28;45321;-67
2022/10/04 10:44:02;;;;;;;;;12.67;11.67;;;;;;;;5018372;28;45388;-67
2022/10/04 10:46:41;;;;;;;;;3.33;3.33;;;;;;;;5018228;28;46737;-66
2022/10/04 10:49:25;;;;;;;;;10.33;10.33;;;;;;;;5018361;28;45367;-67
2022/10/04 10:51:54;;;;;;;;;12.67;12.67;;;;;;;;5018166;28;45538;-67
2022/10/04 10:54:38;;;;;;;;;12.67;10.33;;;;;;;;5018487;28;45297;-67
2022/10/04 10:57:21;;;;;;;;;14.00;12.67;;;;;;;;5018090;28;46482;-67
2022/10/04 11:00:06;;;;;;;;;8.33;6.33;;;;;;;;5018321;28;45452;-66
2022/10/04 11:02:35;;;;;;;;;10.00;10.00;;;;;;;;5018196;28;45227;-67
2022/10/04 11:05:19;;;;;;;;;6.00;6.00;;;;;;;;5018382;28;45300;-66
2022/10/04 11:08:09;;;;;;;;;15.00;12.67;;;;;;;;5017799;28;46281;-66
2022/10/04 11:10:47;;;;;;;;;14.33;12.67;;;;;;;;5017843;28;45260;-67
2022/10/04 11:13:27;;;;;;;;;15.00;13.00;;;;;;;;5018218;28;45260;-67
2022/10/04 11:16:00;;;;;;;;;10.33;7.67;;;;;;;;5018291;28;45320;-67
2022/10/04 11:18:40;;;;;;;;;11.33;10.00;;;;;;;;5017723;28;47143;-66
2022/10/04 11:21:24;;;;;;;;;14.67;14.00;;;;;;;;5017625;28;45423;-67
2022/10/04 11:23:50;;;;;;;;;13.00;10.67;;;;;;;;5017668;28;45512;-67
2022/10/04 11:26:15;;;;;;;;;12.33;11.67;;;;;;;;5017712;28;45502;-67
2022/10/04 11:28:47;;;;;;;;;12.00;10.33;;;;;;;;5017531;28;47040;-67
2022/10/04 11:31:16;;;;;;;;;13.00;8.67;;;;;;;;5017350;28;45310;-67
2022/10/04 11:33:59;;;;;;;;;14.67;11.00;;;;;;;;5017749;28;45438;-67
2022/10/04 11:36:27;;;;;;;;;7.00;7.00;;;;;;;;5018131;28;45254;-67
2022/10/04 11:39:02;;;;;;;;;10.00;8.00;;;;;;;;5017269;28;46317;-67
2022/10/04 11:41:47;;;;;;;;;9.75;9.75;;;;;;;;5017480;28;45473;-67
2022/10/04 11:44:30;;;;;;;;;13.67;11.00;;;;;;;;5017557;28;45289;-67
2022/10/04 11:47:14;;;;;;;;;10.67;10.00;;;;;;;;5017640;28;45483;-67
2022/10/04 11:49:42;;;;;;;;;13.67;10.67;;;;;;;;5017542;28;45662;-67
2022/10/04 11:52:25;;;;;;;;;14.33;12.33;;;;;;;;5017257;28;45301;-67
2022/10/04 11:55:05;;;;;;;;;16.67;13.67;;;;;;;;5017140;28;45136;-67
2022/10/04 11:57:42;;;;;;;;;13.67;11.67;;;;;;;;5017509;28;45313;-67
2022/10/04 12:00:09;;;;;;;;;13.33;12.67;;;;;;;;5017147;28;46376;-67
2022/10/04 12:02:53;;;;;;;;;14.00;13.67;;;;;;;;5017281;28;45263;-67
2022/10/04 12:05:19;;;;;;;;;10.00;8.33;;;;;;;;5017223;28;45392;-67
2022/10/04 12:07:55;;;;;;;;;12.33;11.00;;;;;;;;5017439;28;45398;-67
2022/10/04 12:10:26;;;;;;;;;11.67;11.67;;;;;;;;5017169;28;45512;-67
2022/10/04 12:12:51;;;;;;;;;15.33;12.67;;;;;;;;5017199;28;45366;-67
2022/10/04 12:15:17;;;;;;;;;12.33;11.00;;;;;;;;5017242;28;45366;-67
2022/10/04 12:17:52;;;;;;;;;10.33;10.33;;;;;;;;5017416;28;45389;-68
2022/10/04 12:20:20;;;;;;;;;11.00;8.33;;;;;;;;5016782;28;46573;-67
2022/10/04 12:23:23;;;;;;;;;13.00;10.00;;;;;;;;5016857;28;45231;-67
2022/10/04 12:26:06;;;;;;;;;10.00;9.33;;;;;;;;5014486;28;45458;-67
2022/10/04 12:28:31;;;;;;;;;11.00;9.67;;;;;;;;5015002;28;45426;-68
2022/10/04 12:31:06;;;;;;;;;15.33;14.00;;;;;;;;4997931;28;46394;-67
2022/10/04 12:33:41;;;;;;;;;10.33;8.67;;;;;;;;5014643;28;45395;-67
2022/10/04 12:36:07;;;;;;;;;9.33;7.00;;;;;;;;5014710;28;45379;-67
2022/10/04 12:38:50;;;;;;;;;11.33;11.00;;;;;;;;5014595;28;45541;-67
2022/10/04 12:41:18;;;;;;;;;10.33;9.00;;;;;;;;5014489;28;46556;-67
2022/10/04 12:43:55;;;;;;;;;10.33;10.33;;;;;;;;5015578;28;45462;-67
2022/10/04 12:46:32;;;;;;;;;8.33;7.00;;;;;;;;5018149;28;45254;-67
2022/10/04 12:49:15;;;;;;;;;11.67;11.67;;;;;;;;5018214;28;45314;-67
2022/10/04 12:51:49;;;;;;;;;11.00;8.00;;;;;;;;5017899;28;46515;-67
2022/10/04 12:54:36;;;;;;;;;10.33;7.33;;;;;;;;5018008;28;45338;-67
2022/10/04 12:57:07;;;;;;;;;8.00;8.00;;;;;;;;5019503;28;45458;-67
2022/10/04 12:59:40;;;;;;;;;7.33;7.33;;;;;;;;5020625;28;45321;-67
2022/10/04 13:02:05;;;;;;;;;8.67;8.67;;;;;;;;5019847;28;46382;-67
2022/10/04 13:04:35;;;;;;;;;7.67;7.00;;;;;;;;5020327;28;45480;-67
2022/10/04 13:07:00;;;;;;;;;8.00;7.33;;;;;;;;5020194;28;45300;-67
2022/10/04 13:09:48;;;;;;;;;11.00;7.00;;;;;;;;5020039;28;45412;-68
2022/10/04 13:12:13;;;;;;;;;11.33;9.67;;;;;;;;5017548;28;45554;-67
2022/10/04 13:14:43;;;;;;;;;8.00;7.33;;;;;;;;5017742;28;45355;-67
2022/10/04 13:17:15;;;;;;;;;13.33;12.00;;;;;;;;5017798;28;45557;-67
2022/10/04 13:19:40;;;;;;;;;13.00;12.67;;;;;;;;5017882;28;45533;-68
2022/10/04 13:22:08;;;;;;;;;7.00;7.00;;;;;;;;5017676;28;45454;-67
2022/10/04 13:24:53;;;;;;;;;8.33;6.33;;;;;;;;5017365;28;45383;-67
2022/10/04 13:27:23;;;;;;;;;11.33;8.33;;;;;;;;5017368;28;45473;-68
2022/10/04 13:30:12;;;;;;;;;10.00;9.67;;;;;;;;5017793;28;45609;-67
2022/10/04 13:32:44;;;;;;;;;10.33;9.67;;;;;;;;5016552;28;45549;-67
2022/10/04 13:35:11;;;;;;;;;10.67;10.67;;;;;;;;5017349;28;45414;-67
2022/10/04 13:37:51;;;;;;;;;14.00;12.67;;;;;;;;5017416;28;45417;-68
2022/10/04 13:40:20;;;;;;;;;22.00;21.33;;;;;;;;5017558;28;45337;-68
2022/10/04 13:43:01;;;;;;;;;11.67;10.33;;;;;;;;5017278;28;46429;-68
2022/10/04 13:45:42;;;;;;;;;13.67;10.33;;;;;;;;5017282;28;45375;-68
2022/10/04 13:48:22;;;;;;;;;13.00;10.33;;;;;;;;5017358;28;45397;-68
2022/10/04 13:51:04;;;;;;;;;12.00;10.33;;;;;;;;5019579;28;45523;-68
2022/10/04 13:56:42;;;;;;;;;12.33;10.33;;;;;;;;5019143;28;45452;-68
2022/10/04 13:59:10;;;;;;;;;10.33;7.33;;;;;;;;5019250;28;45508;-67
2022/10/04 14:01:54;;;;;;;;;11.00;10.67;;;;;;;;5019262;28;45322;-68
2022/10/04 14:04:38;;;;;;;;;16.33;11.00;;;;;;;;5018916;28;46234;-68
2022/10/04 14:07:03;;;;;;;;;8.00;7.33;;;;;;;;5018989;28;45373;-68
2022/10/04 14:09:52;;;;;;;;;11.67;8.33;;;;;;;;5019087;28;45448;-67
2022/10/04 14:12:34;;;;;;;;;15.00;15.00;;;;;;;;5019315;28;45193;-68
2022/10/04 14:15:24;;;;;;;;;12.00;9.67;;;;;;;;5018751;28;47364;-68
2022/10/04 14:17:56;;;;;;;;;12.00;12.00;;;;;;;;5018594;28;45412;-68
2022/10/04 14:20:27;;;;;;;;;9.00;7.00;;;;;;;;5018693;28;45282;-68
2022/10/04 14:23:01;;;;;;;;;9.33;6.67;;;;;;;;5018910;28;45540;-68
2022/10/04 14:25:26;;;;;;;;;7.33;7.33;;;;;;;;5018326;28;46605;-67
2022/10/04 14:28:04;;;;;;;;;6.67;6.33;;;;;;;;5017389;28;45277;-68
2022/10/04 14:30:50;;;;;;;;;9.00;7.67;;;;;;;;5017535;28;45318;-68
2022/10/04 14:33:18;;;;;;;;;10.67;8.00;;;;;;;;5017615;28;45329;-67
2022/10/04 14:35:43;;;;;;;;;7.00;5.00;;;;;;;;5017201;28;45365;-68
2022/10/04 14:38:25;;;;;;;;;11.33;10.33;;;;;;;;5017092;28;45495;-67
2022/10/04 14:41:09;;;;;;;;;8.00;7.00;;;;;;;;5017340;28;45231;-68
2022/10/04 14:43:53;;;;;;;;;7.00;7.00;;;;;;;;5017381;28;45219;-68
2022/10/04 14:46:24;;;;;;;;;5.33;5.33;;;;;;;;5017000;28;45361;-67
2022/10/04 14:49:01;;;;;;;;;5.33;5.33;;;;;;;;5017030;28;45425;-68
2022/10/04 14:51:47;;;;;;;;;10.33;10.33;;;;;;;;5017151;28;45316;-67
2022/10/04 14:54:24;;;;;;;;;13.00;11.00;;;;;;;;5017068;28;45544;-67
2022/10/04 14:57:08;;;;;;;;;12.00;8.67;;;;;;;;5016435;28;46205;-67
2022/10/04 14:59:36;;;;;;;;;10.33;8.00;;;;;;;;5016826;28;45374;-67
2022/10/04 15:02:06;;;;;;;;;7.25;7.25;;;;;;;;5017089;28;45312;-67
2022/10/04 15:04:35;;;;;;;;;5.00;5.00;;;;;;;;5016911;28;45350;-67
2022/10/04 15:07:21;;;;;;;;;6.00;4.33;;;;;;;;5016011;28;47089;-67
2022/10/04 15:09:58;;;;;;;;;6.67;6.67;;;;;;;;5016503;28;45237;-68